Portland, North Dakota
Current Conditions -  °F | °C
As of 5:53 AM on Thursday 18 Dec 2014 (Local Time) from KGFK Reporting Station
Scattered Clouds Scattered Clouds  
Wind Chill: -4°   Ceiling: Unl
Heat Index:   Visibility: 10mi
Dew Point:   Wind: 5mph
Humidity: 84%   Direction: 150°SSE
Pressure: 30.26"   Gusts: NA
Location:  47.5°N, 97.37°W
Report Text: KGFK 181153Z 15004KT 10SM SCT220 M15/M17 A3026 RMK AO2 SLP268 T11501172 11128 21167 57013
Loading
Personal Weather Stations






























Interactive Weather Map New forecast layout! Learn more

10-Day Weather Forecast

Advertisements
Track Severe Weather on mobile